Impacts METAR Board INFO
IDs:

KBWI - Baltimore-Washington, MD, US

Updated at: 2053 UTC 13 Dec 2017
Potential Impact None Slight Moderate High
Time13/08Z 13/09Z 13/10Z 13/11Z 13/12Z 13/13Z 13/14Z 13/15Z 13/16Z 13/17Z 13/18Z 13/19Z 13/20Z
VIS10 10 10 10 10 10 10 10 10 10 10 10 10
CIG-- -- -- -- -- -- -- -- -- -- -- -- --
CoverSCTFEWFEWFEWFEWFEWFEWFEWFEWFEWSCTFEWFEW
FltCatVFRVFRVFRVFRVFRVFRVFRVFRVFRVFRVFRVFRVFR
WX--------------------------
WDir290270280290270270280280270290280270280
WSpd15 15 17 16 12 17 20 16 20 16 16 17 12
WGst23 24 28 22 23 29 26 32 31 25 -- 24 --
Raw hourly METARs
KBWI 130754Z 29015G23KT 10SM SCT055 M06/M16 A2974 RMK AO2 PK WND 28027/0729 SLP071 T10611156
KBWI 130854Z 27015G24KT 10SM FEW055 M06/M16 A2974 RMK AO2 PK WND 29030/0827 SLP071 T10611161 51006
KBWI 130954Z 28017G28KT 10SM FEW055 M07/M17 A2974 RMK AO2 PK WND 28028/0911 SLP073 T10671167
KBWI 131054Z 29016G22KT 10SM FEW055 M07/M17 A2976 RMK AO2 PK WND 30029/1041 SLP080 T10671167
KBWI 131154Z 27012G23KT 10SM FEW055 M07/M16 A2979 RMK AO2 PK WND 26031/1123 SLP087 T10671161 11056 21067 53016
KBWI 131254Z 27017G29KT 10SM FEW055 M06/M16 A2979 RMK AO2 PK WND 27029/1245 SLP089 T10611161
KBWI 131354Z 28020G26KT 10SM FEW055 M05/M16 A2980 RMK AO2 PK WND 27029/1334 SLP092 T10501161
KBWI 131454Z 28016G32KT 10SM FEW055 M04/M17 A2981 RMK AO2 PK WND 27035/1426 SLP096 T10391167 53008
KBWI 131554Z 27020G31KT 10SM FEW055 FEW250 M03/M17 A2980 RMK AO2 PK WND 29031/1502 SLP093 T10281167
KBWI 131654Z 29016G25KT 10SM FEW055 FEW250 M02/M16 A2979 RMK AO2 PK WND 29033/1635 SLP088 T10171161
KBWI 131754Z 28016KT 10SM FEW055 FEW180 SCT250 M01/M16 A2977 RMK AO2 SLP083 T10111161 11011 21067 58013
KBWI 131854Z 27017G24KT 10SM FEW180 FEW250 M01/M16 A2976 RMK AO2 SLP079 T10061156
KBWI 131954Z 28012KT 10SM FEW180 FEW250 00/M14 A2975 RMK AO2 SLP077 T00001144